sensor_id;sensor_type;location;lat;lon;timestamp;pressure;altitude;pressure_sealevel;temperature;humidity
60015;BME280;45867;52.480;6.056;2024-03-17T00:01:48;100646.88;;;1.67;100.00
60015;BME280;45867;52.480;6.056;2024-03-17T00:04:13;100672.59;;;1.70;100.00
60015;BME280;45867;52.480;6.056;2024-03-17T00:06:39;100612.09;;;1.41;100.00
60015;BME280;45867;52.480;6.056;2024-03-17T00:09:06;100657.59;;;1.59;100.00
60015;BME280;45867;52.480;6.056;2024-03-17T00:11:32;100636.00;;;1.38;100.00
60015;BME280;45867;52.480;6.056;2024-03-17T00:13:59;100669.38;;;1.68;100.00
60015;BME280;45867;52.480;6.056;2024-03-17T00:16:26;100639.31;;;1.59;100.00
60015;BME280;45867;52.480;6.056;2024-03-17T00:18:51;100655.47;;;1.74;100.00
60015;BME280;45867;52.480;6.056;2024-03-17T00:21:17;100649.06;;;1.70;100.00
60015;BME280;45867;52.480;6.056;2024-03-17T00:23:43;100637.88;;;1.63;100.00
60015;BME280;45867;52.480;6.056;2024-03-17T00:26:08;100655.09;;;1.70;100.00
60015;BME280;45867;52.480;6.056;2024-03-17T00:28:34;100646.84;;;1.73;100.00
60015;BME280;45867;52.480;6.056;2024-03-17T00:31:03;100627.25;;;1.58;100.00
60015;BME280;45867;52.480;6.056;2024-03-17T00:33:28;100645.81;;;1.74;100.00
60015;BME280;45867;52.480;6.056;2024-03-17T00:35:59;100633.41;;;1.70;100.00
60015;BME280;45867;52.480;6.056;2024-03-17T00:38:25;100611.56;;;1.58;100.00
60015;BME280;45867;52.480;6.056;2024-03-17T00:40:51;100645.34;;;1.84;100.00
60015;BME280;45867;52.480;6.056;2024-03-17T00:43:16;100623.38;;;1.67;100.00
60015;BME280;45867;52.480;6.056;2024-03-17T00:45:43;100646.22;;;1.78;100.00
60015;BME280;45867;52.480;6.056;2024-03-17T00:48:09;100616.38;;;1.61;100.00
60015;BME280;45867;52.480;6.056;2024-03-17T00:50:36;100624.59;;;1.64;100.00
60015;BME280;45867;52.480;6.056;2024-03-17T00:53:02;100597.59;;;1.45;100.00
60015;BME280;45867;52.480;6.056;2024-03-17T00:55:27;100645.44;;;1.71;100.00
60015;BME280;45867;52.480;6.056;2024-03-17T00:57:56;100619.66;;;1.49;100.00
60015;BME280;45867;52.480;6.056;2024-03-17T01:00:21;100644.56;;;1.52;100.00
60015;BME280;45867;52.480;6.056;2024-03-17T01:02:48;100623.56;;;1.33;100.00
60015;BME280;45867;52.480;6.056;2024-03-17T01:05:14;100592.59;;;1.12;100.00
60015;BME280;45867;52.480;6.056;2024-03-17T01:07:40;100605.41;;;1.14;100.00
60015;BME280;45867;52.480;6.056;2024-03-17T01:10:06;100633.69;;;1.23;100.00
60015;BME280;45867;52.480;6.056;2024-03-17T01:12:32;100633.28;;;1.20;100.00
60015;BME280;45867;52.480;6.056;2024-03-17T01:15:00;100646.13;;;1.21;100.00
60015;BME280;45867;52.480;6.056;2024-03-17T01:17:25;100652.16;;;1.22;100.00
60015;BME280;45867;52.480;6.056;2024-03-17T01:19:51;100630.91;;;1.11;100.00
60015;BME280;45867;52.480;6.056;2024-03-17T01:22:17;100637.09;;;1.17;100.00
60015;BME280;45867;52.480;6.056;2024-03-17T01:24:42;100637.56;;;1.07;100.00
60015;BME280;45867;52.480;6.056;2024-03-17T01:27:08;100638.78;;;1.05;100.00
60015;BME280;45867;52.480;6.056;2024-03-17T01:29:34;100626.41;;;0.87;100.00
60015;BME280;45867;52.480;6.056;2024-03-17T01:32:00;100650.25;;;0.97;100.00
60015;BME280;45867;52.480;6.056;2024-03-17T01:34:26;100643.44;;;0.89;100.00
60015;BME280;45867;52.480;6.056;2024-03-17T01:36:51;100629.84;;;0.81;100.00
60015;BME280;45867;52.480;6.056;2024-03-17T01:39:17;100617.03;;;0.79;100.00
60015;BME280;45867;52.480;6.056;2024-03-17T01:41:44;100642.25;;;0.92;100.00
60015;BME280;45867;52.480;6.056;2024-03-17T01:44:22;100594.81;;;0.57;100.00
60015;BME280;45867;52.480;6.056;2024-03-17T01:46:49;100604.59;;;0.68;100.00
60015;BME280;45867;52.480;6.056;2024-03-17T01:49:16;100618.97;;;0.91;100.00
60015;BME280;45867;52.480;6.056;2024-03-17T01:51:44;100570.72;;;0.61;100.00
60015;BME280;45867;52.480;6.056;2024-03-17T01:54:10;100593.94;;;0.83;100.00
60015;BME280;45867;52.480;6.056;2024-03-17T01:56:36;100607.91;;;0.95;100.00
60015;BME280;45867;52.480;6.056;2024-03-17T01:59:04;100563.28;;;0.72;100.00
60015;BME280;45867;52.480;6.056;2024-03-17T02:01:31;100552.44;;;0.68;100.00
60015;BME280;45867;52.480;6.056;2024-03-17T02:04:00;100581.03;;;0.95;100.00
60015;BME280;45867;52.480;6.056;2024-03-17T02:06:28;100555.00;;;0.81;100.00
60015;BME280;45867;52.480;6.056;2024-03-17T02:08:54;100537.34;;;0.83;100.00
60015;BME280;45867;52.480;6.056;2024-03-17T02:13:57;100505.09;;;0.71;100.00
60015;BME280;45867;52.480;6.056;2024-03-17T02:16:23;100520.63;;;0.91;100.00
60015;BME280;45867;52.480;6.056;2024-03-17T02:18:54;100480.41;;;0.74;100.00
60015;BME280;45867;52.480;6.056;2024-03-17T02:21:19;100477.75;;;0.80;100.00
60015;BME280;45867;52.480;6.056;2024-03-17T02:23:45;100466.22;;;0.95;100.00
60015;BME280;45867;52.480;6.056;2024-03-17T02:26:10;100484.78;;;1.11;100.00
60015;BME280;45867;52.480;6.056;2024-03-17T02:28:43;100469.28;;;1.17;100.00
60015;BME280;45867;52.480;6.056;2024-03-17T02:31:11;100481.59;;;1.35;100.00
60015;BME280;45867;52.480;6.056;2024-03-17T02:33:37;100427.53;;;1.17;100.00
60015;BME280;45867;52.480;6.056;2024-03-17T02:36:05;100436.88;;;1.31;100.00
60015;BME280;45867;52.480;6.056;2024-03-17T02:38:33;100434.78;;;1.40;100.00
60015;BME280;45867;52.480;6.056;2024-03-17T02:40:59;100435.44;;;1.53;100.00
60015;BME280;45867;52.480;6.056;2024-03-17T02:43:24;100417.38;;;1.52;100.00
60015;BME280;45867;52.480;6.056;2024-03-17T02:45:50;100414.00;;;1.70;100.00
60015;BME280;45867;52.480;6.056;2024-03-17T02:48:16;100402.66;;;1.76;100.00
60015;BME280;45867;52.480;6.056;2024-03-17T02:50:43;100395.19;;;1.80;100.00
60015;BME280;45867;52.480;6.056;2024-03-17T02:53:09;100388.88;;;1.87;100.00
60015;BME280;45867;52.480;6.056;2024-03-17T02:55:36;100388.28;;;1.85;100.00
60015;BME280;45867;52.480;6.056;2024-03-17T02:58:02;100328.09;;;1.62;100.00
60015;BME280;45867;52.480;6.056;2024-03-17T03:00:28;100349.75;;;1.81;100.00
60015;BME280;45867;52.480;6.056;2024-03-17T03:02:53;100329.59;;;1.69;100.00
60015;BME280;45867;52.480;6.056;2024-03-17T03:05:19;100318.56;;;1.67;100.00
60015;BME280;45867;52.480;6.056;2024-03-17T03:07:46;100363.47;;;1.94;100.00
60015;BME280;45867;52.480;6.056;2024-03-17T03:10:13;100340.84;;;1.88;100.00
60015;BME280;45867;52.480;6.056;2024-03-17T03:12:39;100345.38;;;1.93;100.00
60015;BME280;45867;52.480;6.056;2024-03-17T03:15:06;100359.97;;;2.00;100.00
60015;BME280;45867;52.480;6.056;2024-03-17T03:17:32;100349.31;;;2.02;100.00
60015;BME280;45867;52.480;6.056;2024-03-17T03:19:58;100328.75;;;2.06;100.00
60015;BME280;45867;52.480;6.056;2024-03-17T03:22:25;100329.31;;;2.08;100.00
60015;BME280;45867;52.480;6.056;2024-03-17T03:24:54;100347.53;;;2.26;100.00
60015;BME280;45867;52.480;6.056;2024-03-17T03:27:19;100332.00;;;2.31;100.00
60015;BME280;45867;52.480;6.056;2024-03-17T03:29:45;100331.22;;;2.42;100.00
60015;BME280;45867;52.480;6.056;2024-03-17T03:32:11;100326.22;;;2.41;100.00
60015;BME280;45867;52.480;6.056;2024-03-17T03:34:37;100315.44;;;2.37;100.00
60015;BME280;45867;52.480;6.056;2024-03-17T03:37:02;100337.16;;;2.50;100.00
60015;BME280;45867;52.480;6.056;2024-03-17T03:39:28;100344.69;;;2.58;100.00
60015;BME280;45867;52.480;6.056;2024-03-17T03:41:54;100350.25;;;2.61;100.00
60015;BME280;45867;52.480;6.056;2024-03-17T03:44:19;100345.13;;;2.55;100.00
60015;BME280;45867;52.480;6.056;2024-03-17T03:46:45;100364.25;;;2.67;100.00
60015;BME280;45867;52.480;6.056;2024-03-17T03:49:11;100351.75;;;2.57;100.00
60015;BME280;45867;52.480;6.056;2024-03-17T03:51:37;100328.41;;;2.44;100.00
60015;BME280;45867;52.480;6.056;2024-03-17T03:54:03;100386.47;;;2.76;100.00
60015;BME280;45867;52.480;6.056;2024-03-17T03:56:30;100384.19;;;2.80;100.00
60015;BME280;45867;52.480;6.056;2024-03-17T03:58:56;100399.44;;;2.83;100.00
60015;BME280;45867;52.480;6.056;2024-03-17T04:01:21;100360.72;;;2.61;100.00
60015;BME280;45867;52.480;6.056;2024-03-17T04:03:47;100402.44;;;2.86;100.00
60015;BME280;45867;52.480;6.056;2024-03-17T04:06:15;100367.44;;;2.69;100.00
60015;BME280;45867;52.480;6.056;2024-03-17T04:08:40;100400.72;;;2.92;100.00
60015;BME280;45867;52.480;6.056;2024-03-17T04:11:06;100406.28;;;2.96;100.00
60015;BME280;45867;52.480;6.056;2024-03-17T04:13:32;100383.63;;;2.78;100.00
60015;BME280;45867;52.480;6.056;2024-03-17T04:15:57;100396.50;;;2.91;100.00
60015;BME280;45867;52.480;6.056;2024-03-17T04:18:23;100412.78;;;2.93;100.00
60015;BME280;45867;52.480;6.056;2024-03-17T04:20:52;100392.16;;;2.85;100.00
60015;BME280;45867;52.480;6.056;2024-03-17T04:23:19;100417.22;;;3.04;100.00
60015;BME280;45867;52.480;6.056;2024-03-17T04:25:45;100437.84;;;3.24;100.00
60015;BME280;45867;52.480;6.056;2024-03-17T04:28:12;100453.13;;;3.27;100.00
60015;BME280;45867;52.480;6.056;2024-03-17T04:30:39;100459.63;;;3.25;100.00
60015;BME280;45867;52.480;6.056;2024-03-17T04:33:05;100460.16;;;3.15;100.00
60015;BME280;45867;52.480;6.056;2024-03-17T04:35:31;100466.56;;;3.19;100.00
60015;BME280;45867;52.480;6.056;2024-03-17T04:37:56;100481.00;;;3.22;100.00
60015;BME280;45867;52.480;6.056;2024-03-17T04:40:22;100472.66;;;3.13;100.00
60015;BME280;45867;52.480;6.056;2024-03-17T04:42:48;100450.47;;;3.04;100.00
60015;BME280;45867;52.480;6.056;2024-03-17T04:45:14;100498.78;;;3.31;100.00
60015;BME280;45867;52.480;6.056;2024-03-17T04:47:40;100489.88;;;3.21;100.00
60015;BME280;45867;52.480;6.056;2024-03-17T04:50:06;100501.50;;;3.25;100.00
60015;BME280;45867;52.480;6.056;2024-03-17T04:52:32;100502.25;;;3.14;100.00
60015;BME280;45867;52.480;6.056;2024-03-17T04:55:00;100505.94;;;3.24;100.00
60015;BME280;45867;52.480;6.056;2024-03-17T04:57:26;100509.69;;;3.17;100.00
60015;BME280;45867;52.480;6.056;2024-03-17T04:59:52;100533.28;;;3.40;100.00
60015;BME280;45867;52.480;6.056;2024-03-17T05:02:18;100505.00;;;3.07;100.00
60015;BME280;45867;52.480;6.056;2024-03-17T05:04:43;100491.31;;;3.05;100.00
60015;BME280;45867;52.480;6.056;2024-03-17T05:07:09;100559.00;;;3.31;100.00
60015;BME280;45867;52.480;6.056;2024-03-17T05:09:35;100540.34;;;3.28;100.00
60015;BME280;45867;52.480;6.056;2024-03-17T05:12:00;100527.41;;;3.03;100.00
60015;BME280;45867;52.480;6.056;2024-03-17T05:14:27;100531.16;;;3.07;100.00
60015;BME280;45867;52.480;6.056;2024-03-17T05:16:53;100582.09;;;3.23;100.00
60015;BME280;45867;52.480;6.056;2024-03-17T05:19:19;100560.38;;;3.22;100.00
60015;BME280;45867;52.480;6.056;2024-03-17T05:21:45;100571.63;;;3.23;100.00
60015;BME280;45867;52.480;6.056;2024-03-17T05:24:10;100598.78;;;3.40;100.00
60015;BME280;45867;52.480;6.056;2024-03-17T05:26:36;100602.63;;;3.38;100.00
60015;BME280;45867;52.480;6.056;2024-03-17T05:29:02;100596.03;;;3.35;100.00
60015;BME280;45867;52.480;6.056;2024-03-17T05:31:28;100561.38;;;3.21;100.00
60015;BME280;45867;52.480;6.056;2024-03-17T05:33:53;100600.28;;;3.48;100.00
60015;BME280;45867;52.480;6.056;2024-03-17T05:36:19;100581.69;;;3.38;100.00
60015;BME280;45867;52.480;6.056;2024-03-17T05:38:48;100605.41;;;3.54;100.00
60015;BME280;45867;52.480;6.056;2024-03-17T05:41:14;100570.06;;;3.33;100.00
60015;BME280;45867;52.480;6.056;2024-03-17T05:43:39;100582.59;;;3.43;100.00
60015;BME280;45867;52.480;6.056;2024-03-17T05:46:10;100609.19;;;3.59;100.00
60015;BME280;45867;52.480;6.056;2024-03-17T05:48:40;100592.88;;;3.45;100.00
60015;BME280;45867;52.480;6.056;2024-03-17T05:51:07;100618.41;;;3.61;100.00
60015;BME280;45867;52.480;6.056;2024-03-17T05:53:34;100597.53;;;3.54;100.00
60015;BME280;45867;52.480;6.056;2024-03-17T05:56:02;100591.06;;;3.57;100.00
60015;BME280;45867;52.480;6.056;2024-03-17T05:58:28;100589.25;;;3.58;100.00
60015;BME280;45867;52.480;6.056;2024-03-17T06:00:54;100621.84;;;3.73;100.00
60015;BME280;45867;52.480;6.056;2024-03-17T06:03:20;100577.97;;;3.57;100.00
60015;BME280;45867;52.480;6.056;2024-03-17T06:05:49;100613.31;;;3.78;100.00
60015;BME280;45867;52.480;6.056;2024-03-17T06:08:23;100601.78;;;3.67;100.00
60015;BME280;45867;52.480;6.056;2024-03-17T06:10:51;100594.38;;;3.64;100.00
60015;BME280;45867;52.480;6.056;2024-03-17T06:13:17;100591.50;;;3.54;100.00
60015;BME280;45867;52.480;6.056;2024-03-17T06:15:44;100619.78;;;3.64;100.00
60015;BME280;45867;52.480;6.056;2024-03-17T06:18:12;100610.44;;;3.68;100.00
60015;BME280;45867;52.480;6.056;2024-03-17T06:20:44;100605.00;;;3.69;100.00
60015;BME280;45867;52.480;6.056;2024-03-17T06:23:11;100636.38;;;3.88;100.00
60015;BME280;45867;52.480;6.056;2024-03-17T06:25:55;100634.41;;;3.83;100.00
60015;BME280;45867;52.480;6.056;2024-03-17T06:28:20;100623.94;;;3.83;100.00
60015;BME280;45867;52.480;6.056;2024-03-17T06:30:55;100646.41;;;3.91;100.00
60015;BME280;45867;52.480;6.056;2024-03-17T06:33:23;100640.91;;;3.92;100.00
60015;BME280;45867;52.480;6.056;2024-03-17T06:35:49;100622.22;;;3.89;100.00
60015;BME280;45867;52.480;6.056;2024-03-17T06:38:15;100604.91;;;3.88;100.00
60015;BME280;45867;52.480;6.056;2024-03-17T06:40:41;100607.88;;;4.03;100.00
60015;BME280;45867;52.480;6.056;2024-03-17T06:43:08;100609.59;;;4.21;100.00
60015;BME280;45867;52.480;6.056;2024-03-17T06:45:34;100573.22;;;4.13;100.00
60015;BME280;45867;52.480;6.056;2024-03-17T06:48:00;100548.59;;;4.02;100.00
60015;BME280;45867;52.480;6.056;2024-03-17T06:50:25;100583.91;;;4.35;100.00
60015;BME280;45867;52.480;6.056;2024-03-17T06:53:03;100613.78;;;4.45;100.00
60015;BME280;45867;52.480;6.056;2024-03-17T06:55:32;100612.75;;;4.58;100.00
60015;BME280;45867;52.480;6.056;2024-03-17T06:58:02;100566.56;;;4.45;100.00
60015;BME280;45867;52.480;6.056;2024-03-17T07:00:27;100603.47;;;4.67;100.00
60015;BME280;45867;52.480;6.056;2024-03-17T07:02:56;100572.91;;;4.61;100.00
60015;BME280;45867;52.480;6.056;2024-03-17T07:05:31;100595.81;;;4.78;100.00
60015;BME280;45867;52.480;6.056;2024-03-17T07:07:57;100575.13;;;4.81;100.00
60015;BME280;45867;52.480;6.056;2024-03-17T07:10:22;100583.75;;;4.94;100.00
60015;BME280;45867;52.480;6.056;2024-03-17T07:12:48;100628.50;;;5.27;100.00
60015;BME280;45867;52.480;6.056;2024-03-17T07:15:14;100609.53;;;5.25;100.00
60015;BME280;45867;52.480;6.056;2024-03-17T07:17:39;100608.28;;;5.28;100.00
60015;BME280;45867;52.480;6.056;2024-03-17T07:20:07;100653.81;;;5.62;100.00
60015;BME280;45867;52.480;6.056;2024-03-17T07:22:34;100680.81;;;5.57;100.00
60015;BME280;45867;52.480;6.056;2024-03-17T07:25:03;100658.97;;;5.40;100.00
60015;BME280;45867;52.480;6.056;2024-03-17T07:27:31;100679.94;;;5.52;100.00
60015;BME280;45867;52.480;6.056;2024-03-17T07:30:00;100667.09;;;5.55;100.00
60015;BME280;45867;52.480;6.056;2024-03-17T07:32:29;100683.38;;;5.86;100.00
60015;BME280;45867;52.480;6.056;2024-03-17T07:35:03;100667.06;;;5.84;100.00
60015;BME280;45867;52.480;6.056;2024-03-17T07:37:33;100680.97;;;5.96;100.00
60015;BME280;45867;52.480;6.056;2024-03-17T07:39:59;100709.28;;;6.06;100.00
60015;BME280;45867;52.480;6.056;2024-03-17T07:42:25;100747.38;;;6.37;100.00
60015;BME280;45867;52.480;6.056;2024-03-17T07:44:50;100733.75;;;6.40;100.00
60015;BME280;45867;52.480;6.056;2024-03-17T07:47:19;100744.25;;;6.57;100.00
60015;BME280;45867;52.480;6.056;2024-03-17T07:49:46;100776.19;;;7.00;100.00
60015;BME280;45867;52.480;6.056;2024-03-17T07:52:12;100798.00;;;7.34;100.00
60015;BME280;45867;52.480;6.056;2024-03-17T07:54:38;100774.31;;;7.39;100.00
60015;BME280;45867;52.480;6.056;2024-03-17T07:57:04;100845.78;;;7.60;100.00
60015;BME280;45867;52.480;6.056;2024-03-17T07:59:29;100874.34;;;7.68;100.00
60015;BME280;45867;52.480;6.056;2024-03-17T08:01:57;100873.78;;;7.66;100.00
60015;BME280;45867;52.480;6.056;2024-03-17T08:04:23;100926.19;;;7.79;100.00
60015;BME280;45867;52.480;6.056;2024-03-17T08:06:49;100932.59;;;7.83;100.00
60015;BME280;45867;52.480;6.056;2024-03-17T08:09:14;100936.84;;;7.67;100.00
60015;BME280;45867;52.480;6.056;2024-03-17T08:11:40;100977.25;;;7.90;100.00
60015;BME280;45867;52.480;6.056;2024-03-17T08:14:08;100989.41;;;8.13;100.00
60015;BME280;45867;52.480;6.056;2024-03-17T08:16:34;100979.91;;;8.12;100.00
60015;BME280;45867;52.480;6.056;2024-03-17T08:19:00;101036.31;;;8.06;100.00
60015;BME280;45867;52.480;6.056;2024-03-17T08:21:25;101077.06;;;8.15;100.00
60015;BME280;45867;52.480;6.056;2024-03-17T08:23:51;101063.97;;;8.03;100.00
60015;BME280;45867;52.480;6.056;2024-03-17T08:26:17;101090.59;;;8.18;100.00
60015;BME280;45867;52.480;6.056;2024-03-17T08:28:42;101068.91;;;8.16;100.00
60015;BME280;45867;52.480;6.056;2024-03-17T08:31:08;101088.56;;;8.26;100.00
60015;BME280;45867;52.480;6.056;2024-03-17T08:33:34;101094.25;;;8.17;100.00
60015;BME280;45867;52.480;6.056;2024-03-17T08:36:04;101082.38;;;8.37;100.00
60015;BME280;45867;52.480;6.056;2024-03-17T08:38:32;101092.25;;;8.63;100.00
60015;BME280;45867;52.480;6.056;2024-03-17T08:41:09;101083.56;;;9.17;100.00
60015;BME280;45867;52.480;6.056;2024-03-17T08:43:50;101125.34;;;8.93;100.00
60015;BME280;45867;52.480;6.056;2024-03-17T08:46:16;101111.25;;;9.37;100.00
60015;BME280;45867;52.480;6.056;2024-03-17T08:48:42;101132.66;;;9.35;100.00
60015;BME280;45867;52.480;6.056;2024-03-17T08:51:11;101141.13;;;9.96;100.00
60015;BME280;45867;52.480;6.056;2024-03-17T08:53:39;101213.03;;;10.15;100.00
60015;BME280;45867;52.480;6.056;2024-03-17T08:56:06;101271.75;;;9.80;100.00
60015;BME280;45867;52.480;6.056;2024-03-17T08:58:35;101272.25;;;10.31;100.00
60015;BME280;45867;52.480;6.056;2024-03-17T09:01:06;101330.34;;;10.43;100.00
60015;BME280;45867;52.480;6.056;2024-03-17T09:03:38;101359.72;;;10.41;100.00
60015;BME280;45867;52.480;6.056;2024-03-17T09:06:04;101367.25;;;11.24;100.00
60015;BME280;45867;52.480;6.056;2024-03-17T09:08:29;101393.59;;;10.99;100.00
60015;BME280;45867;52.480;6.056;2024-03-17T09:10:56;101454.53;;;10.88;100.00
60015;BME280;45867;52.480;6.056;2024-03-17T09:13:33;101491.88;;;10.60;100.00
60015;BME280;45867;52.480;6.056;2024-03-17T09:16:00;101497.19;;;10.60;100.00
60015;BME280;45867;52.480;6.056;2024-03-17T09:18:27;101503.72;;;10.52;100.00
60015;BME280;45867;52.480;6.056;2024-03-17T09:21:03;101560.13;;;10.48;100.00
60015;BME280;45867;52.480;6.056;2024-03-17T09:23:29;101504.94;;;10.22;100.00
60015;BME280;45867;52.480;6.056;2024-03-17T09:26:07;101531.44;;;10.22;100.00
60015;BME280;45867;52.480;6.056;2024-03-17T09:28:34;101515.50;;;9.78;100.00
60015;BME280;45867;52.480;6.056;2024-03-17T09:31:01;101484.97;;;9.93;100.00
60015;BME280;45867;52.480;6.056;2024-03-17T09:33:34;101496.41;;;9.76;100.00
60015;BME280;45867;52.480;6.056;2024-03-17T09:36:09;101456.34;;;9.90;100.00
60015;BME280;45867;52.480;6.056;2024-03-17T09:38:35;101496.09;;;10.34;100.00
60015;BME280;45867;52.480;6.056;2024-03-17T09:41:03;101486.38;;;10.39;100.00
60015;BME280;45867;52.480;6.056;2024-03-17T09:43:32;101481.50;;;10.53;100.00
60015;BME280;45867;52.480;6.056;2024-03-17T09:45:58;101488.53;;;10.70;100.00
60015;BME280;45867;52.480;6.056;2024-03-17T09:48:28;101492.22;;;10.69;100.00
60015;BME280;45867;52.480;6.056;2024-03-17T09:51:00;101495.66;;;10.69;100.00
60015;BME280;45867;52.480;6.056;2024-03-17T09:53:34;101504.63;;;10.90;100.00
60015;BME280;45867;52.480;6.056;2024-03-17T09:56:13;101514.91;;;10.81;100.00
60015;BME280;45867;52.480;6.056;2024-03-17T09:58:40;101493.97;;;10.58;100.00
60015;BME280;45867;52.480;6.056;2024-03-17T10:01:06;101531.41;;;10.61;100.00
60015;BME280;45867;52.480;6.056;2024-03-17T10:06:16;101542.47;;;10.58;100.00
60015;BME280;45867;52.480;6.056;2024-03-17T10:08:42;101552.34;;;10.63;100.00
60015;BME280;45867;52.480;6.056;2024-03-17T10:11:08;101544.69;;;10.66;100.00
60015;BME280;45867;52.480;6.056;2024-03-17T10:13:34;101545.19;;;10.41;100.00
60015;BME280;45867;52.480;6.056;2024-03-17T10:16:00;101552.63;;;10.22;100.00
60015;BME280;45867;52.480;6.056;2024-03-17T10:18:26;101542.75;;;10.35;100.00
60015;BME280;45867;52.480;6.056;2024-03-17T10:20:52;101534.84;;;10.62;100.00
60015;BME280;45867;52.480;6.056;2024-03-17T10:23:17;101546.47;;;10.61;100.00
60015;BME280;45867;52.480;6.056;2024-03-17T10:25:43;101565.00;;;10.56;100.00
60015;BME280;45867;52.480;6.056;2024-03-17T10:28:13;101559.41;;;10.79;100.00
60015;BME280;45867;52.480;6.056;2024-03-17T10:30:41;101565.16;;;10.98;100.00
60015;BME280;45867;52.480;6.056;2024-03-17T10:33:07;101553.41;;;10.89;100.00
60015;BME280;45867;52.480;6.056;2024-03-17T10:35:46;101583.63;;;11.15;100.00
60015;BME280;45867;52.480;6.056;2024-03-17T10:38:12;101594.38;;;11.30;100.00
60015;BME280;45867;52.480;6.056;2024-03-17T10:40:39;101622.91;;;11.18;100.00
60015;BME280;45867;52.480;6.056;2024-03-17T10:43:07;101642.00;;;11.15;100.00
60015;BME280;45867;52.480;6.056;2024-03-17T10:45:33;101641.03;;;11.26;100.00
60015;BME280;45867;52.480;6.056;2024-03-17T10:48:00;101642.69;;;11.05;100.00
60015;BME280;45867;52.480;6.056;2024-03-17T10:50:30;101634.78;;;11.10;100.00
60015;BME280;45867;52.480;6.056;2024-03-17T10:53:07;101642.34;;;11.24;100.00
60015;BME280;45867;52.480;6.056;2024-03-17T10:55:54;101638.09;;;11.50;100.00
60015;BME280;45867;52.480;6.056;2024-03-17T10:58:36;101650.28;;;11.51;100.00
60015;BME280;45867;52.480;6.056;2024-03-17T11:01:02;101664.47;;;11.34;100.00
60015;BME280;45867;52.480;6.056;2024-03-17T11:03:33;101676.69;;;11.36;100.00
60015;BME280;45867;52.480;6.056;2024-03-17T11:06:03;101680.34;;;11.56;100.00
60015;BME280;45867;52.480;6.056;2024-03-17T11:08:35;101685.06;;;11.49;100.00
60015;BME280;45867;52.480;6.056;2024-03-17T11:11:03;101688.28;;;11.56;100.00
60015;BME280;45867;52.480;6.056;2024-03-17T11:13:32;101668.22;;;11.66;100.00
60015;BME280;45867;52.480;6.056;2024-03-17T11:15:59;101657.72;;;11.81;100.00
60015;BME280;45867;52.480;6.056;2024-03-17T11:18:29;101713.78;;;11.85;100.00
60015;BME280;45867;52.480;6.056;2024-03-17T11:21:21;101696.13;;;11.95;100.00
60015;BME280;45867;52.480;6.056;2024-03-17T11:23:56;101737.00;;;11.94;100.00
60015;BME280;45867;52.480;6.056;2024-03-17T11:26:27;101716.94;;;12.09;100.00
60015;BME280;45867;52.480;6.056;2024-03-17T11:28:54;101733.84;;;11.97;100.00
60015;BME280;45867;52.480;6.056;2024-03-17T11:31:40;101730.41;;;12.34;100.00
60015;BME280;45867;52.480;6.056;2024-03-17T11:34:28;101772.81;;;12.19;100.00
60015;BME280;45867;52.480;6.056;2024-03-17T11:36:56;101771.59;;;11.99;100.00
60015;BME280;45867;52.480;6.056;2024-03-17T11:39:56;101779.81;;;12.30;100.00
60015;BME280;45867;52.480;6.056;2024-03-17T11:42:25;101818.13;;;12.34;100.00
60015;BME280;45867;52.480;6.056;2024-03-17T11:45:04;101807.41;;;12.24;100.00
60015;BME280;45867;52.480;6.056;2024-03-17T11:47:38;101798.69;;;12.02;100.00
60015;BME280;45867;52.480;6.056;2024-03-17T11:50:06;101738.91;;;12.31;100.00
60015;BME280;45867;52.480;6.056;2024-03-17T11:52:32;101649.38;;;12.37;100.00
60015;BME280;45867;52.480;6.056;2024-03-17T11:54:57;101562.78;;;12.56;100.00
60015;BME280;45867;52.480;6.056;2024-03-17T11:57:25;101488.91;;;12.84;100.00
60015;BME280;45867;52.480;6.056;2024-03-17T11:59:53;101403.00;;;12.88;100.00
60015;BME280;45867;52.480;6.056;2024-03-17T12:02:24;101361.53;;;12.57;100.00
60015;BME280;45867;52.480;6.056;2024-03-17T12:04:56;101324.56;;;12.40;100.00
60015;BME280;45867;52.480;6.056;2024-03-17T12:07:28;101274.84;;;11.89;100.00
60015;BME280;45867;52.480;6.056;2024-03-17T12:09:54;101255.47;;;11.94;100.00
60015;BME280;45867;52.480;6.056;2024-03-17T12:12:25;101275.94;;;12.09;100.00
60015;BME280;45867;52.480;6.056;2024-03-17T12:14:53;101278.03;;;11.86;100.00
60015;BME280;45867;52.480;6.056;2024-03-17T12:17:24;101242.94;;;11.69;100.00
60015;BME280;45867;52.480;6.056;2024-03-17T12:19:51;101258.66;;;11.86;100.00
60015;BME280;45867;52.480;6.056;2024-03-17T12:22:22;101245.03;;;11.67;100.00
60015;BME280;45867;52.480;6.056;2024-03-17T12:24:51;101251.66;;;11.59;100.00
60015;BME280;45867;52.480;6.056;2024-03-17T12:27:26;101246.06;;;11.50;100.00
60015;BME280;45867;52.480;6.056;2024-03-17T12:29:54;101211.53;;;11.35;100.00
60015;BME280;45867;52.480;6.056;2024-03-17T12:34:54;101236.81;;;11.58;100.00
60015;BME280;45867;52.480;6.056;2024-03-17T12:39:49;101212.91;;;11.58;100.00
60015;BME280;45867;52.480;6.056;2024-03-17T12:42:16;101197.81;;;11.69;100.00
60015;BME280;45867;52.480;6.056;2024-03-17T12:45:04;101208.97;;;11.86;100.00
60015;BME280;45867;52.480;6.056;2024-03-17T12:47:36;101166.47;;;11.61;100.00
60015;BME280;45867;52.480;6.056;2024-03-17T12:50:11;101193.06;;;12.02;100.00
60015;BME280;45867;52.480;6.056;2024-03-17T12:52:40;101148.69;;;11.82;100.00
60015;BME280;45867;52.480;6.056;2024-03-17T12:55:08;101190.41;;;12.02;100.00
60015;BME280;45867;52.480;6.056;2024-03-17T12:57:34;101159.31;;;11.92;100.00
60015;BME280;45867;52.480;6.056;2024-03-17T13:00:16;101151.06;;;12.19;100.00
60015;BME280;45867;52.480;6.056;2024-03-17T13:02:46;101169.91;;;12.33;100.00